Time;durP1;ratioP1;P1;durP2;ratioP2;P2;SDS_P1;SDS_P2;PMS_P1;PMS_P2;Temp;Humidity;BMP_temperature;BMP_pressure;BME280_temperature;BME280_humidity;BME280_pressure;Samples;Min_cycle;Max_cycle;Signal;HPM_P1;HPM_P2
2022/03/18 00:00:16;;;;;;;0.80;0.80;;;7.10;99.90;;;;;;5072131;28;20201;-70
2022/03/18 00:02:42;;;;;;;0.80;0.80;;;7.20;99.90;;;;;;5072687;28;20214;-71
2022/03/18 00:05:08;;;;;;;0.77;0.77;;;7.20;99.90;;;;;;5073068;28;20549;-71
2022/03/18 00:07:34;;;;;;;0.70;0.70;;;7.20;99.90;;;;;;5072849;28;20532;-71
2022/03/18 00:09:59;;;;;;;0.70;0.70;;;7.20;99.90;;;;;;5072049;28;20206;-71
2022/03/18 00:12:25;;;;;;;0.80;0.80;;;7.20;99.90;;;;;;5072128;28;20182;-71
2022/03/18 00:14:50;;;;;;;0.80;0.80;;;7.20;99.90;;;;;;5071863;28;20209;-71
2022/03/18 00:17:16;;;;;;;0.70;0.70;;;7.20;99.90;;;;;;5072282;28;20616;-72
2022/03/18 00:19:42;;;;;;;0.80;0.80;;;7.10;99.90;;;;;;5071509;28;20708;-72
2022/03/18 00:22:08;;;;;;;0.80;0.80;;;7.10;99.90;;;;;;5072275;28;20244;-71
2022/03/18 00:24:34;;;;;;;0.70;0.70;;;7.10;99.90;;;;;;5072850;28;20189;-70
2022/03/18 00:27:01;;;;;;;0.70;0.70;;;7.10;99.90;;;;;;5072423;28;20193;-71
2022/03/18 00:29:27;;;;;;;0.80;0.80;;;7.00;99.90;;;;;;5071979;28;20608;-71
2022/03/18 00:31:53;;;;;;;0.70;0.70;;;7.00;99.90;;;;;;5072167;28;20240;-70
2022/03/18 00:34:19;;;;;;;0.70;0.70;;;7.10;99.90;;;;;;5072699;28;20179;-71
2022/03/18 00:36:45;;;;;;;0.70;0.70;;;7.00;99.90;;;;;;5070615;28;20179;-71
2022/03/18 00:39:10;;;;;;;0.80;0.80;;;7.00;99.90;;;;;;5070630;28;20189;-70
2022/03/18 00:41:36;;;;;;;0.70;0.70;;;7.00;99.90;;;;;;5071739;28;20207;-70
2022/03/18 00:44:02;;;;;;;0.80;0.80;;;7.30;99.90;;;;;;5072103;28;20201;-71
2022/03/18 00:46:28;;;;;;;0.80;0.80;;;7.00;99.90;;;;;;5071286;28;20170;-70
2022/03/18 00:54:22;;;;;;;0.80;0.80;;;7.00;99.90;;;;;;5071923;28;20636;-70
2022/03/18 00:56:47;;;;;;;0.70;0.70;;;7.00;99.90;;;;;;5071428;28;20206;-70
2022/03/18 00:59:13;;;;;;;0.70;0.70;;;6.90;99.90;;;;;;5071365;28;20185;-71
2022/03/18 01:01:39;;;;;;;0.70;0.70;;;7.00;99.90;;;;;;5070264;28;20285;-71
2022/03/18 01:04:05;;;;;;;0.70;0.70;;;6.90;99.90;;;;;;5072177;28;20345;-70
2022/03/18 01:06:31;;;;;;;0.80;0.80;;;7.00;99.90;;;;;;5071768;28;20664;-71
2022/03/18 01:08:57;;;;;;;0.80;0.80;;;7.00;99.90;;;;;;5070998;28;20177;-72
2022/03/18 01:11:23;;;;;;;0.80;0.80;;;7.00;99.90;;;;;;5070964;28;20573;-71
2022/03/18 01:13:49;;;;;;;0.83;0.83;;;7.00;99.90;;;;;;5071103;28;20194;-71
2022/03/18 01:16:14;;;;;;;0.70;0.70;;;6.90;99.90;;;;;;5071160;28;20198;-72
2022/03/18 01:18:40;;;;;;;0.70;0.70;;;6.90;99.90;;;;;;5071396;28;20178;-71
2022/03/18 01:21:05;;;;;;;0.70;0.70;;;6.90;99.90;;;;;;5070928;28;20660;-70
2022/03/18 01:23:31;;;;;;;0.70;0.70;;;6.80;99.90;;;;;;5070777;28;20170;-72
2022/03/18 01:25:57;;;;;;;0.80;0.80;;;6.90;99.90;;;;;;5070690;28;20216;-71
2022/03/18 01:28:23;;;;;;;0.77;0.77;;;6.90;99.90;;;;;;5071426;28;20181;-71
2022/03/18 01:30:48;;;;;;;0.80;0.80;;;6.90;99.90;;;;;;5070751;28;20198;-71
2022/03/18 01:33:14;;;;;;;0.70;0.70;;;6.90;99.90;;;;;;5070666;28;20166;-71
2022/03/18 01:35:40;;;;;;;0.70;0.70;;;6.90;99.90;;;;;;5071569;28;20209;-70
2022/03/18 01:38:05;;;;;;;0.80;0.80;;;7.00;99.90;;;;;;5070792;28;20175;-71
2022/03/18 01:40:31;;;;;;;0.80;0.80;;;7.00;99.90;;;;;;5070404;28;20201;-71
2022/03/18 01:42:57;;;;;;;0.70;0.70;;;7.00;99.90;;;;;;5071033;28;20214;-71
2022/03/18 01:45:24;;;;;;;0.80;0.80;;;6.90;99.90;;;;;;5071111;28;20529;-71
2022/03/18 01:47:49;;;;;;;0.70;0.70;;;6.90;99.90;;;;;;5070740;28;20636;-71
2022/03/18 01:50:15;;;;;;;0.77;0.77;;;6.90;99.90;;;;;;5070176;28;20186;-71
2022/03/18 01:52:43;;;;;;;0.70;0.70;;;7.00;99.90;;;;;;5071041;28;20182;-71
2022/03/18 01:55:10;;;;;;;0.70;0.70;;;6.90;99.90;;;;;;5070385;28;20186;-71
2022/03/18 01:57:36;;;;;;;0.80;0.80;;;6.90;99.90;;;;;;5070492;28;20170;-72
2022/03/18 02:00:04;;;;;;;0.70;0.70;;;6.90;99.90;;;;;;5070182;28;20194;-72
2022/03/18 02:02:29;;;;;;;0.80;0.80;;;6.90;99.90;;;;;;5070690;28;20581;-71
2022/03/18 02:04:56;;;;;;;0.70;0.70;;;6.90;99.90;;;;;;5070260;28;20230;-71
2022/03/18 02:07:21;;;;;;;0.70;0.70;;;6.90;99.90;;;;;;5069693;28;20166;-71
2022/03/18 02:09:47;;;;;;;0.90;0.90;;;6.90;99.90;;;;;;5070109;28;20329;-71
2022/03/18 02:12:13;;;;;;;0.73;0.73;;;6.90;99.90;;;;;;5070542;28;20678;-70
2022/03/18 02:14:41;;;;;;;0.80;0.80;;;6.80;99.90;;;;;;5070297;28;20175;-71
2022/03/18 02:17:08;;;;;;;0.70;0.70;;;6.90;99.90;;;;;;5070202;28;20194;-71
2022/03/18 02:19:35;;;;;;;0.80;0.80;;;6.90;99.90;;;;;;5070137;28;20321;-71
2022/03/18 02:22:17;;;;;;;0.80;0.80;;;6.90;99.90;;;;;;5070583;28;20214;-72
2022/03/18 02:24:45;;;;;;;0.80;0.80;;;6.90;99.90;;;;;;5070349;28;20311;-70
2022/03/18 02:27:11;;;;;;;0.70;0.70;;;6.80;99.90;;;;;;5070628;28;20178;-71
2022/03/18 02:29:36;;;;;;;0.80;0.80;;;6.80;99.90;;;;;;5069862;28;20725;-71
2022/03/18 02:32:04;;;;;;;0.70;0.70;;;6.80;99.90;;;;;;5070941;28;20179;-71
2022/03/18 02:34:31;;;;;;;0.80;0.80;;;6.80;99.90;;;;;;5070403;28;20659;-71
2022/03/18 02:36:56;;;;;;;0.70;0.70;;;6.80;99.90;;;;;;5072668;28;20261;-71
2022/03/18 02:39:22;;;;;;;0.90;0.90;;;6.80;99.90;;;;;;5073917;28;20265;-70
2022/03/18 02:41:48;;;;;;;0.70;0.70;;;6.80;99.90;;;;;;5073754;28;20225;-69
2022/03/18 02:44:14;;;;;;;0.70;0.70;;;6.80;99.90;;;;;;5074451;28;20171;-70
2022/03/18 02:46:39;;;;;;;0.70;0.70;;;6.80;99.90;;;;;;5073376;28;20265;-69
2022/03/18 02:49:06;;;;;;;0.70;0.70;;;6.80;99.90;;;;;;5073420;28;20656;-68
2022/03/18 02:51:32;;;;;;;0.80;0.80;;;6.80;99.90;;;;;;5074341;28;20197;-70
2022/03/18 02:53:58;;;;;;;0.70;0.70;;;6.80;99.90;;;;;;5074638;28;20177;-70
2022/03/18 02:56:24;;;;;;;0.80;0.80;;;6.80;99.90;;;;;;5074251;28;20175;-71
2022/03/18 02:58:51;;;;;;;0.70;0.70;;;6.80;99.90;;;;;;5073656;28;20267;-71
2022/03/18 03:01:17;;;;;;;0.80;0.80;;;6.70;99.90;;;;;;5072896;28;20234;-70
2022/03/18 03:03:42;;;;;;;0.70;0.70;;;6.70;99.90;;;;;;5073946;28;20239;-71
2022/03/18 03:08:52;;;;;;;0.70;0.70;;;6.60;99.90;;;;;;5073710;28;20212;-70
2022/03/18 03:11:17;;;;;;;0.80;0.80;;;6.70;99.90;;;;;;5073639;28;20245;-70
2022/03/18 03:13:43;;;;;;;0.80;0.80;;;6.70;99.90;;;;;;5073870;28;20171;-70
2022/03/18 03:16:09;;;;;;;0.73;0.73;;;6.70;99.90;;;;;;5073374;28;20232;-70
2022/03/18 03:18:35;;;;;;;0.80;0.80;;;6.70;99.90;;;;;;5073631;28;20179;-71
2022/03/18 03:21:01;;;;;;;0.70;0.70;;;6.70;99.90;;;;;;5072524;28;22184;-71
2022/03/18 03:23:27;;;;;;;0.77;0.77;;;6.80;99.90;;;;;;5073261;28;20183;-70
2022/03/18 03:25:56;;;;;;;0.80;0.80;;;6.80;99.90;;;;;;5073006;28;20551;-71
2022/03/18 03:28:22;;;;;;;0.77;0.77;;;6.80;99.90;;;;;;5073325;28;20178;-70
2022/03/18 03:30:48;;;;;;;0.80;0.80;;;6.80;99.90;;;;;;5072943;28;20268;-71
2022/03/18 03:33:14;;;;;;;0.80;0.80;;;6.80;99.90;;;;;;5073615;28;20179;-70
2022/03/18 03:35:40;;;;;;;0.80;0.80;;;6.80;99.90;;;;;;5073503;28;20183;-69
2022/03/18 03:38:06;;;;;;;0.80;0.80;;;6.70;99.90;;;;;;5073310;28;20293;-71
2022/03/18 03:40:33;;;;;;;0.80;0.80;;;6.70;99.90;;;;;;5072525;28;20228;-72
2022/03/18 03:42:59;;;;;;;0.73;0.73;;;6.70;99.90;;;;;;5071779;28;20260;-71
2022/03/18 03:45:25;;;;;;;0.70;0.70;;;6.70;99.90;;;;;;5072381;28;20183;-71
2022/03/18 03:47:51;;;;;;;0.70;0.70;;;6.70;99.90;;;;;;5072806;28;20174;-71
2022/03/18 03:50:17;;;;;;;0.70;0.70;;;6.70;99.90;;;;;;5072464;28;20247;-70
2022/03/18 03:52:43;;;;;;;0.80;0.80;;;6.60;99.90;;;;;;5072153;28;20651;-71
2022/03/18 03:55:11;;;;;;;0.77;0.77;;;6.60;99.90;;;;;;5073028;28;20674;-71
2022/03/18 03:57:38;;;;;;;0.87;0.87;;;6.60;99.90;;;;;;5072787;28;20652;-70
2022/03/18 04:00:05;;;;;;;0.80;0.80;;;6.60;99.90;;;;;;5071757;28;20205;-71
2022/03/18 04:02:31;;;;;;;0.77;0.77;;;6.60;99.90;;;;;;5072558;28;20213;-70
2022/03/18 04:04:57;;;;;;;0.77;0.77;;;6.60;99.90;;;;;;5073231;28;20171;-72
2022/03/18 04:07:25;;;;;;;0.80;0.80;;;6.60;99.90;;;;;;5072832;28;20274;-70
2022/03/18 04:09:53;;;;;;;0.80;0.80;;;6.60;99.90;;;;;;5072278;28;20226;-71
2022/03/18 04:12:22;;;;;;;0.70;0.70;;;6.60;99.90;;;;;;5073043;28;20265;-72
2022/03/18 04:14:48;;;;;;;0.80;0.80;;;6.60;99.90;;;;;;5073109;28;20182;-69
2022/03/18 04:17:14;;;;;;;0.70;0.70;;;6.60;99.90;;;;;;5072768;28;20248;-71
2022/03/18 04:19:39;;;;;;;0.87;0.87;;;6.60;99.90;;;;;;5112601;23;20206;-74
2022/03/18 04:22:05;;;;;;;0.70;0.70;;;6.60;99.90;;;;;;5052362;28;20564;-74
2022/03/18 04:24:31;;;;;;;0.70;0.70;;;6.60;99.90;;;;;;5053308;28;20274;-73
2022/03/18 04:26:57;;;;;;;0.70;0.70;;;6.60;99.90;;;;;;5052756;28;20213;-75
2022/03/18 04:29:23;;;;;;;0.60;0.60;;;6.60;99.90;;;;;;5054866;28;20171;-74
2022/03/18 04:31:49;;;;;;;0.80;0.80;;;6.60;99.90;;;;;;5073405;28;20179;-75
2022/03/18 04:34:16;;;;;;;0.70;0.70;;;6.60;99.90;;;;;;5072907;28;20202;-73
2022/03/18 04:36:42;;;;;;;0.70;0.70;;;6.60;99.90;;;;;;5072439;28;20202;-71
2022/03/18 04:39:07;;;;;;;0.80;0.80;;;6.60;99.90;;;;;;5072404;28;20221;-71
2022/03/18 04:41:33;;;;;;;0.60;0.60;;;6.60;99.90;;;;;;5072958;28;20211;-69
2022/03/18 04:44:01;;;;;;;0.60;0.60;;;6.60;99.90;;;;;;5073103;28;20235;-72
2022/03/18 04:46:28;;;;;;;0.70;0.70;;;6.60;99.90;;;;;;5071966;28;20174;-71
2022/03/18 04:48:54;;;;;;;0.70;0.70;;;6.60;99.90;;;;;;5072056;28;20664;-73
2022/03/18 04:51:20;;;;;;;0.70;0.70;;;6.60;99.90;;;;;;5072241;28;20202;-74
2022/03/18 04:53:45;;;;;;;0.70;0.70;;;6.70;99.90;;;;;;5072389;28;20182;-73
2022/03/18 04:57:15;;;;;;;0.63;0.63;;;6.70;99.90;;;;;;5072882;28;20267;-73
2022/03/18 04:58:57;;;;;;;0.73;0.73;;;6.70;99.90;;;;;;5071781;28;20539;-73
2022/03/18 05:01:23;;;;;;;0.70;0.70;;;6.70;99.90;;;;;;5071779;28;20693;-73
2022/03/18 05:03:48;;;;;;;0.67;0.67;;;6.70;99.90;;;;;;5072537;28;20261;-73
2022/03/18 05:06:14;;;;;;;0.70;0.70;;;6.80;99.90;;;;;;5072795;28;20170;-73
2022/03/18 05:08:40;;;;;;;0.63;0.63;;;6.80;99.90;;;;;;5072879;28;20189;-73
2022/03/18 05:11:05;;;;;;;0.60;0.60;;;6.80;99.90;;;;;;5072291;28;20691;-74
2022/03/18 05:13:31;;;;;;;0.60;0.60;;;6.70;99.90;;;;;;5072867;28;20187;-73
2022/03/18 05:15:56;;;;;;;0.70;0.70;;;6.70;99.90;;;;;;5072667;28;20685;-71
2022/03/18 05:18:22;;;;;;;0.57;0.57;;;6.70;99.90;;;;;;5072819;28;20201;-71
2022/03/18 05:20:48;;;;;;;0.60;0.60;;;6.60;99.90;;;;;;5071893;28;20680;-73
2022/03/18 05:23:14;;;;;;;0.70;0.70;;;6.70;99.90;;;;;;5072568;28;20277;-69
2022/03/18 05:25:40;;;;;;;0.70;0.70;;;6.60;99.90;;;;;;5072246;28;20209;-72
2022/03/18 05:28:07;;;;;;;0.60;0.60;;;6.60;99.90;;;;;;5071879;28;20554;-70
2022/03/18 05:30:33;;;;;;;0.60;0.60;;;6.60;99.90;;;;;;5071709;28;20202;-73
2022/03/18 05:32:59;;;;;;;0.60;0.60;;;6.60;99.90;;;;;;5072482;28;20266;-72
2022/03/18 05:35:24;;;;;;;0.60;0.60;;;6.60;99.90;;;;;;5072215;28;20656;-72
2022/03/18 05:37:50;;;;;;;0.60;0.60;;;6.60;99.90;;;;;;5072689;28;20178;-69
2022/03/18 05:40:18;;;;;;;0.63;0.63;;;6.60;99.90;;;;;;5071392;28;20194;-73
2022/03/18 05:42:45;;;;;;;0.70;0.70;;;6.60;99.90;;;;;;5072317;28;20218;-71
2022/03/18 05:45:11;;;;;;;0.70;0.70;;;6.60;99.90;;;;;;5072386;28;20175;-73
2022/03/18 05:47:37;;;;;;;0.60;0.60;;;6.60;99.90;;;;;;5071967;28;20269;-73
2022/03/18 05:50:05;;;;;;;0.70;0.70;;;6.60;99.90;;;;;;5069985;28;20205;-74
2022/03/18 05:52:31;;;;;;;0.60;0.60;;;6.60;99.90;;;;;;5071087;28;20663;-74
2022/03/18 05:54:57;;;;;;;0.63;0.63;;;6.70;99.90;;;;;;5071542;28;20552;-73
2022/03/18 05:57:27;;;;;;;0.60;0.60;;;6.70;99.90;;;;;;5070662;28;20180;-73
2022/03/18 05:59:54;;;;;;;0.70;0.70;;;6.70;99.90;;;;;;5067914;28;20611;-72
2022/03/18 06:02:20;;;;;;;0.60;0.60;;;6.70;99.90;;;;;;5070280;28;20210;-72
2022/03/18 06:04:46;;;;;;;0.70;0.70;;;6.70;99.90;;;;;;5070881;28;20180;-73
2022/03/18 06:07:12;;;;;;;0.80;0.80;;;6.70;99.90;;;;;;5070502;28;20186;-74
2022/03/18 06:12:22;;;;;;;0.60;0.60;;;6.80;99.90;;;;;;5070615;28;20240;-71
2022/03/18 06:14:47;;;;;;;0.70;0.70;;;6.80;99.90;;;;;;5071358;28;20182;-70
2022/03/18 06:17:13;;;;;;;0.70;0.70;;;6.90;99.90;;;;;;5071915;28;20175;-71
2022/03/18 06:19:38;;;;;;;0.60;0.60;;;6.90;99.90;;;;;;5071319;28;20563;-73
2022/03/18 06:22:04;;;;;;;0.70;0.70;;;6.90;99.90;;;;;;5071006;28;20210;-71
2022/03/18 06:24:30;;;;;;;0.70;0.70;;;6.80;99.90;;;;;;5070603;28;20713;-73
2022/03/18 06:26:56;;;;;;;0.70;0.70;;;6.90;99.90;;;;;;5070573;28;20279;-73
2022/03/18 06:29:22;;;;;;;0.63;0.63;;;6.80;99.90;;;;;;5069698;28;20170;-74
2022/03/18 06:31:48;;;;;;;0.70;0.70;;;6.80;99.90;;;;;;5070216;28;20232;-74
2022/03/18 06:34:14;;;;;;;0.80;0.80;;;6.80;99.90;;;;;;5070516;28;20175;-73
2022/03/18 06:36:40;;;;;;;0.50;0.50;;;6.90;99.90;;;;;;5069449;28;20422;-75
2022/03/18 06:39:08;;;;;;;0.63;0.63;;;7.10;99.90;;;;;;5069678;28;20653;-72
2022/03/18 06:41:34;;;;;;;0.60;0.60;;;7.40;99.90;;;;;;5070112;28;20206;-70
2022/03/18 06:43:59;;;;;;;0.60;0.60;;;7.50;99.90;;;;;;5070318;28;20173;-70
2022/03/18 06:46:26;;;;;;;0.60;0.60;;;7.50;99.90;;;;;;5070374;28;20171;-71
2022/03/18 06:48:51;;;;;;;0.77;0.77;;;7.60;99.90;;;;;;5070074;28;20548;-72
2022/03/18 06:51:17;;;;;;;0.80;0.80;;;7.50;99.90;;;;;;5070272;28;20202;-73
2022/03/18 06:53:43;;;;;;;0.70;0.70;;;7.60;99.90;;;;;;5070271;28;20170;-72
2022/03/18 06:56:09;;;;;;;0.70;0.70;;;7.60;99.90;;;;;;5070105;28;20698;-71
2022/03/18 06:58:35;;;;;;;0.70;0.70;;;7.70;99.90;;;;;;5070028;28;20174;-69
2022/03/18 07:01:01;;;;;;;0.70;0.70;;;7.70;98.80;;;;;;5069956;28;20187;-70
2022/03/18 07:03:27;;;;;;;0.70;0.70;;;7.70;43.00;;;;;;5071440;28;20261;-71
2022/03/18 07:05:52;;;;;;;0.70;0.70;;;7.70;34.80;;;;;;5071305;28;20208;-72
2022/03/18 07:08:18;;;;;;;0.70;0.70;;;7.80;44.30;;;;;;5070520;28;20187;-70
2022/03/18 07:10:43;;;;;;;0.60;0.60;;;8.10;1.10;;;;;;5070151;28;20191;-72
2022/03/18 07:13:09;;;;;;;0.60;0.60;;;8.10;1.00;;;;;;5071422;28;20186;-71
2022/03/18 07:15:35;;;;;;;0.73;0.73;;;7.90;1.00;;;;;;5071276;28;20190;-71
2022/03/18 07:18:01;;;;;;;0.70;0.70;;;7.90;14.30;;;;;;5071311;28;20242;-70
2022/03/18 07:20:36;;;;;;;0.60;0.60;;;7.90;1.00;;;;;;5071323;28;20237;-72
2022/03/18 07:23:02;;;;;;;0.70;0.70;;;8.40;5.80;;;;;;5071740;28;20300;-71
2022/03/18 07:25:28;;;;;;;0.70;0.70;;;8.50;1.00;;;;;;5074516;28;20281;-69
2022/03/18 07:27:54;;;;;;;0.70;0.70;;;8.30;1.00;;;;;;5074423;28;20198;-68
2022/03/18 07:30:19;;;;;;;0.70;0.70;;;8.30;1.00;;;;;;5074102;28;20202;-71
2022/03/18 07:32:45;;;;;;;0.70;0.70;;;8.30;1.00;;;;;;5074618;28;20631;-69
2022/03/18 07:35:10;;;;;;;0.60;0.60;;;8.40;1.00;;;;;;5074408;28;20241;-73
2022/03/18 07:37:36;;;;;;;0.57;0.57;;;8.30;1.00;;;;;;5074514;28;20232;-70
2022/03/18 07:40:03;;;;;;;0.60;0.60;;;8.10;1.00;;;;;;5073716;28;20205;-71
2022/03/18 07:42:41;;;;;;;0.60;0.60;;;8.20;1.00;;;;;;5074194;28;20210;-70
2022/03/18 07:45:07;;;;;;;0.60;0.60;;;8.30;1.00;;;;;;5074549;28;20170;-69
2022/03/18 07:47:32;;;;;;;0.70;0.70;;;8.30;1.00;;;;;;5074692;28;20179;-72
2022/03/18 07:49:58;;;;;;;0.50;0.50;;;8.40;1.00;;;;;;5073785;28;20268;-71
2022/03/18 07:52:25;;;;;;;0.60;0.60;;;8.40;1.00;;;;;;5074284;28;20224;-73
2022/03/18 07:54:51;;;;;;;0.60;0.60;;;8.40;1.00;;;;;;5074191;28;20204;-70
2022/03/18 07:57:16;;;;;;;0.60;0.60;;;8.40;1.00;;;;;;5074331;28;20171;-70
2022/03/18 07:59:42;;;;;;;0.60;0.60;;;8.40;1.00;;;;;;5073931;28;20255;-70
2022/03/18 08:02:07;;;;;;;0.80;0.80;;;8.30;1.00;;;;;;5074112;28;20206;-72
2022/03/18 08:04:34;;;;;;;0.60;0.60;;;8.40;1.00;;;;;;5073337;28;20943;-70
2022/03/18 08:07:03;;;;;;;0.60;0.60;;;8.40;1.00;;;;;;5073091;28;20179;-71
2022/03/18 08:09:29;;;;;;;0.70;0.70;;;8.40;1.00;;;;;;5075362;28;20407;-71
2022/03/18 08:11:55;;;;;;;0.73;0.73;;;8.60;1.00;;;;;;5073033;28;20568;-73
2022/03/18 08:14:21;;;;;;;0.60;0.60;;;8.70;1.00;;;;;;5073439;28;20194;-71
2022/03/18 08:16:47;;;;;;;0.60;0.60;;;8.70;1.00;;;;;;5073385;28;20548;-73
2022/03/18 08:19:12;;;;;;;0.70;0.70;;;8.70;1.00;;;;;;5072658;28;20731;-73
2022/03/18 08:21:38;;;;;;;0.60;0.60;;;8.70;1.00;;;;;;5073374;28;20742;-73
2022/03/18 08:24:04;;;;;;;0.60;0.60;;;8.70;1.00;;;;;;5073568;28;20258;-72
2022/03/18 08:26:30;;;;;;;0.60;0.60;;;8.90;1.00;;;;;;5074087;28;20353;-69
2022/03/18 08:28:57;;;;;;;0.60;0.60;;;8.70;1.00;;;;;;5074147;28;20171;-70
2022/03/18 08:31:22;;;;;;;0.73;0.73;;;8.60;1.00;;;;;;5073545;28;20256;-74
2022/03/18 08:33:48;;;;;;;0.60;0.60;;;8.60;1.00;;;;;;5073649;28;20588;-72
2022/03/18 08:36:14;;;;;;;0.60;0.60;;;8.50;1.00;;;;;;5073248;28;20175;-71
2022/03/18 08:38:40;;;;;;;0.60;0.60;;;8.50;1.00;;;;;;5073290;28;20178;-73
2022/03/18 08:41:06;;;;;;;0.50;0.50;;;8.70;1.00;;;;;;5072647;28;20669;-73
2022/03/18 08:43:31;;;;;;;0.60;0.60;;;8.60;1.00;;;;;;5073327;28;20261;-71
2022/03/18 08:45:57;;;;;;;0.67;0.67;;;8.50;1.00;;;;;;5073233;28;20188;-71
2022/03/18 08:48:22;;;;;;;0.60;0.60;;;8.60;1.00;;;;;;5073068;28;20265;-71
2022/03/18 08:50:48;;;;;;;0.70;0.70;;;8.70;1.00;;;;;;5072424;28;20207;-71
2022/03/18 08:53:13;;;;;;;0.60;0.60;;;8.70;99.90;;;;;;5072820;28;20175;-71
2022/03/18 08:55:40;;;;;;;0.67;0.67;;;8.80;99.90;;;;;;5073535;28;20170;-72
2022/03/18 08:58:07;;;;;;;0.70;0.70;;;8.90;99.90;;;;;;5073174;28;20182;-73
2022/03/18 09:00:34;;;;;;;0.67;0.67;;;9.10;99.90;;;;;;5072349;28;20194;-73
2022/03/18 09:02:59;;;;;;;0.63;0.63;;;9.20;1.00;;;;;;5072653;28;20296;-74
2022/03/18 09:05:25;;;;;;;0.60;0.60;;;9.30;1.00;;;;;;5072808;28;20194;-73
2022/03/18 09:07:50;;;;;;;0.63;0.63;;;9.20;1.00;;;;;;5072735;28;20659;-71
2022/03/18 09:10:16;;;;;;;0.60;0.60;;;9.30;1.00;;;;;;5072424;28;20221;-73
2022/03/18 09:12:49;;;;;;;0.60;0.60;;;9.30;1.00;;;;;;5072581;28;20257;-71
2022/03/18 09:15:16;;;;;;;0.77;0.77;;;9.30;99.90;;;;;;5072721;28;20170;-72
2022/03/18 09:17:42;;;;;;;0.50;0.50;;;9.30;99.90;;;;;;5072305;28;20636;-69
2022/03/18 09:20:08;;;;;;;0.60;0.60;;;9.70;99.90;;;;;;5071789;28;20719;-72
2022/03/18 09:22:34;;;;;;;0.70;0.70;;;9.80;94.20;;;;;;5072279;28;20217;-72
2022/03/18 09:24:59;;;;;;;0.60;0.60;;;9.90;1.00;;;;;;5072731;28;20527;-71
2022/03/18 09:27:25;;;;;;;0.60;0.60;;;10.10;1.00;;;;;;5073864;28;20170;-73
2022/03/18 09:29:51;;;;;;;0.60;0.60;;;10.10;1.00;;;;;;5071714;28;20191;-73
2022/03/18 09:32:16;;;;;;;0.60;0.60;;;10.40;1.00;;;;;;5072303;28;20565;-72
2022/03/18 09:34:42;;;;;;;0.53;0.53;;;10.20;1.00;;;;;;5072097;28;20636;-72
2022/03/18 09:37:08;;;;;;;0.60;0.60;;;10.10;1.00;;;;;;5072033;28;20170;-73
2022/03/18 09:39:34;;;;;;;0.50;0.50;;;10.40;85.10;;;;;;5053927;28;20198;-70
2022/03/18 09:41:59;;;;;;;0.60;0.60;;;10.30;1.00;;;;;;5072060;28;20266;-72
2022/03/18 09:44:36;;;;;;;0.60;0.60;;;10.30;99.90;;;;;;5071781;28;20170;-74
2022/03/18 09:47:03;;;;;;;0.60;0.60;;;10.60;1.00;;;;;;5071165;28;20178;-72
2022/03/18 09:49:29;;;;;;;0.60;0.60;;;10.60;1.00;;;;;;5071397;28;20167;-74
2022/03/18 09:51:54;;;;;;;0.50;0.50;;;10.50;1.00;;;;;;5071844;28;20174;-74
2022/03/18 09:54:20;;;;;;;0.57;0.57;;;10.70;99.90;;;;;;5072147;28;20543;-74
2022/03/18 09:56:48;;;;;;;0.50;0.50;;;10.60;1.00;;;;;;5072188;28;20178;-74
2022/03/18 09:59:14;;;;;;;0.53;0.53;;;10.70;1.00;;;;;;5071446;28;20183;-70
2022/03/18 10:01:40;;;;;;;0.60;0.60;;;10.70;99.90;;;;;;5071636;28;20206;-74
2022/03/18 10:04:10;;;;;;;0.40;0.40;;;10.90;1.00;;;;;;5072752;28;20205;-73
2022/03/18 10:06:38;;;;;;;0.50;0.50;;;10.80;18.00;;;;;;5074372;28;20162;-73
2022/03/18 10:09:07;;;;;;;0.60;0.60;;;10.50;1.00;;;;;;5071494;28;20202;-74
2022/03/18 10:11:37;;;;;;;0.50;0.50;;;10.70;1.00;;;;;;5071565;28;20195;-74
2022/03/18 10:14:13;;;;;;;0.60;0.60;;;10.70;1.00;;;;;;5071140;28;20182;-72
2022/03/18 10:16:43;;;;;;;0.60;0.60;;;11.30;1.00;;;;;;5051624;28;20205;-74
2022/03/18 10:19:13;;;;;;;0.40;0.40;;;11.10;1.00;;;;;;5058452;28;20648;-74
2022/03/18 10:21:56;;;;;;;0.53;0.53;;;11.60;99.90;;;;;;5071953;28;20256;-73
2022/03/18 10:24:30;;;;;;;0.50;0.50;;;11.40;1.00;;;;;;5071515;28;20174;-72
2022/03/18 10:27:17;;;;;;;0.50;0.50;;;11.50;1.00;;;;;;5071397;28;20698;-73
2022/03/18 10:29:53;;;;;;;0.50;0.50;;;11.60;1.00;;;;;;5071073;28;20206;-73
2022/03/18 10:32:20;;;;;;;0.40;0.40;;;11.50;1.00;;;;;;5071392;28;20224;-74
2022/03/18 10:37:47;;;;;;;0.67;0.67;;;11.00;1.00;;;;;;5070981;28;20181;-73
2022/03/18 10:40:14;;;;;;;0.40;0.40;;;11.40;1.00;;;;;;5070617;28;20198;-74
2022/03/18 10:42:40;;;;;;;0.50;0.50;;;11.80;1.00;;;;;;5071188;28;20218;-73
2022/03/18 10:45:07;;;;;;;0.40;0.40;;;11.30;99.90;;;;;;5071450;28;20201;-73
2022/03/18 10:47:41;;;;;;;0.40;0.40;;;10.90;1.00;;;;;;5071359;28;20178;-73
2022/03/18 10:50:29;;;;;;;0.50;0.50;;;11.10;1.00;;;;;;5070732;28;20201;-72
2022/03/18 10:52:57;;;;;;;0.50;0.50;;;11.60;99.90;;;;;;5071592;28;20182;-74
2022/03/18 10:55:24;;;;;;;0.50;0.50;;;12.00;99.90;;;;;;5071357;28;20162;-71
2022/03/18 10:57:53;;;;;;;0.40;0.40;;;12.00;99.90;;;;;;5071416;28;20185;-73
2022/03/18 11:00:20;;;;;;;0.47;0.47;;;12.20;99.90;;;;;;5074494;28;20226;-74
2022/03/18 11:02:51;;;;;;;0.40;0.40;;;12.80;99.90;;;;;;5075438;28;20305;-73
2022/03/18 11:05:20;;;;;;;0.40;0.40;;;12.70;1.00;;;;;;5075425;28;20183;-73
2022/03/18 11:07:47;;;;;;;0.40;0.40;;;13.00;1.00;;;;;;5075554;28;20190;-74
2022/03/18 11:13:02;;;;;;;0.50;0.50;;;13.00;1.00;;;;;;5077308;28;20547;-74
2022/03/18 11:15:29;;;;;;;0.47;0.47;;;13.30;1.00;;;;;;5075094;28;20174;-73
2022/03/18 11:17:56;;;;;;;0.40;0.40;;;13.50;1.00;;;;;;5075287;28;20182;-72
2022/03/18 11:20:26;;;;;;;0.40;0.40;;;13.40;1.00;;;;;;5074263;28;20297;-73
2022/03/18 11:22:52;;;;;;;0.40;0.40;;;13.10;1.00;;;;;;5073965;28;20264;-72
2022/03/18 11:25:19;;;;;;;0.40;0.40;;;13.30;1.00;;;;;;5074626;28;20197;-73
2022/03/18 11:27:46;;;;;;;0.40;0.40;;;13.20;1.00;;;;;;5074947;28;20202;-73
2022/03/18 11:30:20;;;;;;;0.40;0.40;;;13.20;1.00;;;;;;5074393;28;20190;-72
2022/03/18 11:33:10;;;;;;;0.50;0.50;;;12.90;1.00;;;;;;5075120;28;20659;-71
2022/03/18 11:36:01;;;;;;;0.40;0.40;;;12.90;1.00;;;;;;5074974;28;20178;-73
2022/03/18 11:38:54;;;;;;;0.40;0.40;;;13.10;1.00;;;;;;5074834;28;20202;-75
2022/03/18 11:41:23;;;;;;;0.50;0.50;;;13.90;1.00;;;;;;5074489;28;20218;-74
2022/03/18 11:43:51;;;;;;;0.50;0.50;;;13.90;1.00;;;;;;5074677;28;20248;-73
2022/03/18 11:46:16;;;;;;;0.40;0.40;;;13.80;1.00;;;;;;5074070;28;20167;-73
2022/03/18 11:48:57;;;;;;;0.40;0.40;;;14.20;1.00;;;;;;5080741;28;20688;-73
2022/03/18 11:51:35;;;;;;;0.40;0.40;;;14.80;1.00;;;;;;5077114;28;20198;-74
2022/03/18 11:54:05;;;;;;;0.40;0.40;;;14.50;1.00;;;;;;5074579;28;20257;-72
2022/03/18 11:56:39;;;;;;;0.50;0.50;;;13.40;1.00;;;;;;5074626;28;20174;-74
2022/03/18 11:59:24;;;;;;;0.50;0.50;;;14.00;1.00;;;;;;5079917;28;20264;-72
2022/03/18 12:01:59;;;;;;;0.40;0.40;;;14.60;1.00;;;;;;5078908;28;20299;-75
2022/03/18 12:04:38;;;;;;;0.30;0.30;;;14.50;1.00;;;;;;5076372;28;20651;-73
2022/03/18 12:07:18;;;;;;;0.40;0.40;;;15.30;1.00;;;;;;5075425;28;20325;-75
2022/03/18 12:09:53;;;;;;;0.40;0.40;;;15.90;1.00;;;;;;5072985;28;20798;-74
2022/03/18 12:12:21;;;;;;;0.40;0.40;;;15.70;1.00;;;;;;5074039;28;20196;-74
2022/03/18 12:14:47;;;;;;;0.40;0.40;;;14.80;1.00;;;;;;5073631;28;20171;-74
2022/03/18 12:17:12;;;;;;;0.40;0.40;;;15.30;1.00;;;;;;5073827;28;20177;-75
2022/03/18 12:19:38;;;;;;;0.40;0.40;;;15.30;1.00;;;;;;5073106;28;20601;-74
2022/03/18 12:22:06;;;;;;;0.40;0.40;;;15.00;1.00;;;;;;5073875;28;20257;-73
2022/03/18 12:24:32;;;;;;;0.47;0.47;;;14.90;1.00;;;;;;5073927;28;20580;-74
2022/03/18 12:27:00;;;;;;;0.30;0.30;;;14.00;1.00;;;;;;5073728;28;20190;-74
2022/03/18 12:29:27;;;;;;;0.40;0.40;;;14.00;1.00;;;;;;5073039;28;20261;-72
2022/03/18 12:32:10;;;;;;;0.37;0.37;;;13.70;1.00;;;;;;5074118;28;20637;-73
2022/03/18 12:34:49;;;;;;;0.50;0.50;;;13.60;1.00;;;;;;5073470;28;20228;-74
2022/03/18 12:37:23;;;;;;;0.40;0.40;;;13.50;1.00;;;;;;5071698;28;20171;-74
2022/03/18 12:40:15;;;;;;;0.40;0.40;;;13.70;1.00;;;;;;5073149;28;20276;-73
2022/03/18 12:42:57;;;;;;;0.50;0.50;;;13.70;1.00;;;;;;5073245;28;20595;-73
2022/03/18 12:45:34;;;;;;;0.40;0.40;;;13.80;1.00;;;;;;5073495;28;20177;-73
2022/03/18 12:48:02;;;;;;;0.40;0.40;;;13.80;1.00;;;;;;5073331;28;20178;-74
2022/03/18 12:50:51;;;;;;;0.50;0.50;;;13.90;1.00;;;;;;5072999;28;20202;-74
2022/03/18 12:53:23;;;;;;;0.40;0.40;;;14.00;1.00;;;;;;5073955;28;20181;-71
2022/03/18 12:55:55;;;;;;;0.50;0.50;;;13.90;1.00;;;;;;5073781;28;20179;-72
2022/03/18 12:58:22;;;;;;;0.40;0.40;;;13.50;1.00;;;;;;5073254;28;20549;-72
2022/03/18 13:00:55;;;;;;;0.40;0.40;;;13.70;1.00;;;;;;5072469;28;20719;-72
2022/03/18 13:03:26;;;;;;;0.50;0.50;;;14.20;1.00;;;;;;5072924;28;20206;-73
2022/03/18 13:05:52;;;;;;;0.43;0.43;;;14.00;1.00;;;;;;5073094;28;20181;-72
2022/03/18 13:08:22;;;;;;;0.37;0.37;;;14.80;1.00;;;;;;5072891;28;20177;-73
2022/03/18 13:10:59;;;;;;;0.40;0.40;;;15.00;1.00;;;;;;5072264;28;20217;-72
2022/03/18 13:13:27;;;;;;;0.40;0.40;;;14.80;1.00;;;;;;5072750;28;20178;-72
2022/03/18 13:16:01;;;;;;;0.40;0.40;;;14.20;1.00;;;;;;5072632;28;20187;-72